createdAt,value
2023-02-04T00:20:08.316Z,8.70
2023-02-04T00:22:35.148Z,8.70
2023-02-04T00:25:02.319Z,8.60
2023-02-04T00:27:29.329Z,8.60
2023-02-04T00:29:57.533Z,8.60
2023-02-04T00:32:25.041Z,8.60
2023-02-04T00:34:53.857Z,8.60
2023-02-04T00:37:21.017Z,8.70
2023-02-04T00:39:47.905Z,8.70
2023-02-04T00:42:15.023Z,8.70
2023-02-04T00:44:41.856Z,8.70
2023-02-04T00:47:08.670Z,8.60
2023-02-04T00:49:35.551Z,8.60
2023-02-04T00:52:02.409Z,8.60
2023-02-04T00:54:29.885Z,8.60
2023-02-04T00:56:56.852Z,8.60
2023-02-04T00:59:23.980Z,8.60
2023-02-04T01:01:51.758Z,8.60
2023-02-04T01:04:18.606Z,8.50
2023-02-04T01:06:45.453Z,8.50
2023-02-04T01:09:12.430Z,8.50
2023-02-04T01:11:39.282Z,8.50
2023-02-04T01:14:06.046Z,8.50
2023-02-04T01:16:33.108Z,8.50
2023-02-04T01:19:00.493Z,8.50
2023-02-04T01:21:27.409Z,8.50
2023-02-04T01:23:54.254Z,8.50
2023-02-04T01:26:21.283Z,8.50
2023-02-04T01:28:48.378Z,8.50
2023-02-04T01:31:15.643Z,8.50
2023-02-04T01:33:42.808Z,8.50
2023-02-04T01:36:10.382Z,8.40
2023-02-04T01:38:37.611Z,8.40
2023-02-04T01:41:05.694Z,8.40
2023-02-04T01:43:33.645Z,8.40
2023-02-04T01:46:02.507Z,8.40
2023-02-04T01:48:30.560Z,8.40
2023-02-04T01:51:07.666Z,8.40
2023-02-04T01:53:35.926Z,8.40
2023-02-04T01:56:16.113Z,8.40
2023-02-04T01:58:43.544Z,8.40
2023-02-04T02:01:32.433Z,8.40
2023-02-04T02:03:59.857Z,8.40
2023-02-04T02:06:31.428Z,8.30
2023-02-04T02:08:58.648Z,8.20
2023-02-04T02:11:26.957Z,8.20
2023-02-04T02:13:54.600Z,8.20
2023-02-04T02:16:22.317Z,8.20
2023-02-04T02:18:49.540Z,8.20
2023-02-04T02:21:24.272Z,8.20
2023-02-04T02:23:54.530Z,8.20
2023-02-04T02:26:23.580Z,8.20
2023-02-04T02:28:51.443Z,8.20
2023-02-04T02:31:20.723Z,8.20
2023-02-04T02:33:48.531Z,8.30
2023-02-04T02:36:15.581Z,8.30
2023-02-04T02:38:42.655Z,8.30
2023-02-04T02:41:10.467Z,8.30
2023-02-04T02:43:38.532Z,8.20
2023-02-04T02:46:06.185Z,8.20
2023-02-04T02:48:33.518Z,8.20
2023-02-04T02:51:00.645Z,8.20
2023-02-04T02:53:27.790Z,8.20
2023-02-04T02:55:54.786Z,8.20
2023-02-04T02:58:27.984Z,8.20
2023-02-04T03:00:55.956Z,8.10
2023-02-04T03:03:29.346Z,8.10
2023-02-04T03:06:01.406Z,8.10
2023-02-04T03:08:28.693Z,8.10
2023-02-04T03:10:55.817Z,8.10
2023-02-04T03:13:23.616Z,8.10
2023-02-04T03:15:50.905Z,8.10
2023-02-04T03:18:20.967Z,8.10
2023-02-04T03:20:50.934Z,8.00
2023-02-04T03:23:19.134Z,8.10
2023-02-04T03:25:46.398Z,8.10
2023-02-04T03:28:13.450Z,8.10
2023-02-04T03:30:40.425Z,8.10
2023-02-04T03:33:07.596Z,8.00
2023-02-04T03:35:34.575Z,8.00
2023-02-04T03:38:01.414Z,8.00
2023-02-04T03:40:30.414Z,8.00
2023-02-04T03:42:57.565Z,8.00
2023-02-04T03:45:25.088Z,8.00
2023-02-04T03:47:53.870Z,7.90
2023-02-04T03:50:20.706Z,8.00
2023-02-04T03:52:49.044Z,8.00
2023-02-04T03:55:16.138Z,8.00
2023-02-04T03:57:43.196Z,8.00
2023-02-04T04:00:11.428Z,7.90
2023-02-04T04:02:38.664Z,7.90
2023-02-04T04:05:06.189Z,7.90
2023-02-04T04:07:33.273Z,7.90
2023-02-04T04:10:00.189Z,7.90
2023-02-04T04:12:27.400Z,7.90
2023-02-04T04:14:54.223Z,7.90
2023-02-04T04:17:21.365Z,7.90
2023-02-04T04:19:49.598Z,7.90
2023-02-04T04:22:16.692Z,7.90
2023-02-04T04:24:43.674Z,7.80
2023-02-04T04:27:10.493Z,7.80
2023-02-04T04:29:37.412Z,7.80
2023-02-04T04:32:05.417Z,7.80
2023-02-04T04:34:32.334Z,7.80
2023-02-04T04:36:59.278Z,7.80
2023-02-04T04:39:26.477Z,7.70
2023-02-04T04:41:53.414Z,7.70
2023-02-04T04:44:20.466Z,7.70
2023-02-04T04:46:47.440Z,7.70
2023-02-04T04:49:14.355Z,7.70
2023-02-04T04:51:41.164Z,7.70
2023-02-04T04:54:08.300Z,7.60
2023-02-04T04:56:35.212Z,7.60
2023-02-04T04:59:03.343Z,7.60
2023-02-04T05:01:30.215Z,7.60
2023-02-04T05:03:57.089Z,7.60
2023-02-04T05:06:25.530Z,7.60
2023-02-04T05:08:53.029Z,7.60
2023-02-04T05:11:20.984Z,7.60
2023-02-04T05:13:48.722Z,7.60
2023-02-04T05:16:16.483Z,7.60
2023-02-04T05:18:43.509Z,7.60
2023-02-04T05:21:10.538Z,7.50
2023-02-04T05:23:37.358Z,7.50
2023-02-04T05:26:04.327Z,7.50
2023-02-04T05:28:31.255Z,7.50
2023-02-04T05:30:58.203Z,7.50
2023-02-04T05:33:25.169Z,7.50
2023-02-04T05:35:52.135Z,7.50
2023-02-04T05:38:18.980Z,7.50
2023-02-04T05:40:45.885Z,7.50
2023-02-04T05:43:12.786Z,7.50
2023-02-04T05:45:39.866Z,7.50
2023-02-04T05:48:06.786Z,7.40
2023-02-04T05:50:33.970Z,7.40
2023-02-04T05:53:00.972Z,7.40
2023-02-04T05:55:28.001Z,7.40
2023-02-04T05:57:54.797Z,7.40
2023-02-04T06:00:21.866Z,7.40
2023-02-04T06:02:48.693Z,7.40
2023-02-04T06:05:15.650Z,7.40
2023-02-04T06:07:42.527Z,7.40
2023-02-04T06:10:11.031Z,7.30
2023-02-04T06:12:37.904Z,7.40
2023-02-04T06:15:05.429Z,7.30
2023-02-04T06:17:32.729Z,7.30
2023-02-04T06:19:59.751Z,7.30
2023-02-04T06:22:26.997Z,7.30
2023-02-04T06:24:53.908Z,7.30
2023-02-04T06:27:23.426Z,7.30
2023-02-04T06:29:51.363Z,7.30
2023-02-04T06:32:19.422Z,7.30
2023-02-04T06:34:46.468Z,7.20
2023-02-04T06:37:13.925Z,7.30
2023-02-04T06:39:40.743Z,7.20
2023-02-04T06:42:07.615Z,7.20
2023-02-04T06:44:34.608Z,7.30
2023-02-04T06:47:01.539Z,7.30
2023-02-04T06:49:28.385Z,7.30
2023-02-04T06:51:55.462Z,7.30
2023-02-04T06:54:22.428Z,7.30
2023-02-04T06:56:49.475Z,7.30
2023-02-04T06:59:16.554Z,7.30
2023-02-04T07:01:43.498Z,7.40
2023-02-04T07:04:10.794Z,7.40
2023-02-04T07:06:37.646Z,7.40
2023-02-04T07:09:04.601Z,7.40
2023-02-04T07:11:31.537Z,7.40
2023-02-04T07:13:58.456Z,7.40
2023-02-04T07:16:25.743Z,7.40
2023-02-04T07:18:52.671Z,7.50
2023-02-04T07:21:19.695Z,7.40
2023-02-04T07:23:46.617Z,7.50
2023-02-04T07:26:13.464Z,7.50
2023-02-04T07:28:41.381Z,7.50
2023-02-04T07:31:08.527Z,7.40
2023-02-04T07:33:35.679Z,7.40
2023-02-04T07:36:02.903Z,7.40
2023-02-04T07:38:29.793Z,7.40
2023-02-04T07:40:57.028Z,7.40
2023-02-04T07:43:24.308Z,7.40
2023-02-04T07:45:51.147Z,7.40
2023-02-04T07:48:18.195Z,7.40
2023-02-04T07:50:45.232Z,7.40
2023-02-04T07:53:12.366Z,7.50
2023-02-04T07:55:39.242Z,7.50
2023-02-04T07:58:06.422Z,7.50
2023-02-04T08:00:33.676Z,7.50
2023-02-04T08:03:00.850Z,7.50
2023-02-04T08:05:27.778Z,7.50
2023-02-04T08:07:54.619Z,7.50
2023-02-04T08:10:21.590Z,7.60
2023-02-04T08:12:48.965Z,7.50
2023-02-04T08:15:15.998Z,7.50
2023-02-04T08:17:42.878Z,7.60
2023-02-04T08:20:11.332Z,7.70
2023-02-04T08:22:38.270Z,7.70
2023-02-04T08:25:05.834Z,7.70
2023-02-04T08:27:32.837Z,7.70
2023-02-04T08:29:59.703Z,7.80
2023-02-04T08:32:27.753Z,7.90
2023-02-04T08:34:54.858Z,7.90
2023-02-04T08:37:21.749Z,8.00
2023-02-04T08:39:49.131Z,8.00
2023-02-04T08:42:16.668Z,8.20
2023-02-04T08:44:43.680Z,8.20
2023-02-04T08:47:10.873Z,8.30
2023-02-04T08:49:37.975Z,8.40
2023-02-04T08:52:06.653Z,8.50
2023-02-04T08:54:34.708Z,8.60
2023-02-04T08:57:02.424Z,8.70
2023-02-04T08:59:29.757Z,8.70
2023-02-04T09:01:56.732Z,8.70
2023-02-04T09:04:24.762Z,8.70
2023-02-04T09:06:52.039Z,8.70
2023-02-04T09:09:21.641Z,8.80
2023-02-04T09:11:49.567Z,8.80
2023-02-04T09:14:17.180Z,8.80
2023-02-04T09:16:44.019Z,8.70
2023-02-04T09:19:12.862Z,8.70
2023-02-04T09:21:39.743Z,8.60
2023-02-04T09:24:06.684Z,8.60
2023-02-04T09:26:33.606Z,8.60
2023-02-04T09:29:00.635Z,8.70
2023-02-04T09:31:27.490Z,8.90
2023-02-04T09:33:54.385Z,9.00
2023-02-04T09:36:21.377Z,9.30
2023-02-04T09:38:48.492Z,9.40
2023-02-04T09:41:15.478Z,9.60
2023-02-04T09:43:45.060Z,9.40
2023-02-04T09:46:31.233Z,9.50
2023-02-04T09:49:03.677Z,9.50
2023-02-04T09:51:34.615Z,9.60
2023-02-04T09:54:13.579Z,9.60
2023-02-04T09:56:41.206Z,9.80
2023-02-04T09:59:18.157Z,9.90
2023-02-04T10:01:46.031Z,9.80
2023-02-04T10:04:15.246Z,9.70
2023-02-04T10:06:44.060Z,9.60
2023-02-04T10:09:16.022Z,9.60
2023-02-04T10:11:44.780Z,9.60
2023-02-04T10:14:19.713Z,9.50
2023-02-04T10:17:00.657Z,9.50
2023-02-04T10:19:30.537Z,9.50
2023-02-04T10:21:58.373Z,9.40
2023-02-04T10:24:29.906Z,9.40
2023-02-04T10:27:08.933Z,9.50
2023-02-04T10:29:36.151Z,9.60
2023-02-04T10:32:03.227Z,9.80
2023-02-04T10:34:39.852Z,9.90
2023-02-04T10:37:19.849Z,10.00
2023-02-04T10:39:46.847Z,10.00
2023-02-04T10:42:24.820Z,10.30
2023-02-04T10:44:52.185Z,10.30
2023-02-04T10:47:24.962Z,10.30
2023-02-04T10:49:52.613Z,10.40
2023-02-04T10:52:21.488Z,10.50
2023-02-04T10:54:48.777Z,10.50
2023-02-04T10:57:23.357Z,10.70
2023-02-04T11:00:02.414Z,10.60
2023-02-04T11:02:44.902Z,10.50
2023-02-04T11:05:18.881Z,10.50
2023-02-04T11:07:47.371Z,10.50
2023-02-04T11:10:16.961Z,10.60
2023-02-04T11:13:00.843Z,10.70
2023-02-04T11:15:49.838Z,10.70
2023-02-04T11:18:20.481Z,10.60
2023-02-04T11:20:52.509Z,10.50
2023-02-04T11:23:30.056Z,10.30
2023-02-04T11:26:10.624Z,10.30
2023-02-04T11:28:40.671Z,10.30
2023-02-04T11:31:19.886Z,10.20
2023-02-04T11:33:48.301Z,10.10
2023-02-04T11:36:16.710Z,10.00
2023-02-04T11:38:48.985Z,9.90
2023-02-04T11:41:26.767Z,10.10
2023-02-04T11:43:57.828Z,10.10
2023-02-04T11:46:28.216Z,10.20
2023-02-04T11:48:57.140Z,10.40
2023-02-04T11:51:31.242Z,10.60
2023-02-04T11:53:57.990Z,10.60
2023-02-04T11:56:28.694Z,10.60
2023-02-04T11:58:58.081Z,10.70
2023-02-04T12:01:31.498Z,10.80
2023-02-04T12:04:05.240Z,11.00
2023-02-04T12:06:34.429Z,11.20
2023-02-04T12:09:29.992Z,11.50
2023-02-04T12:11:59.774Z,11.80
2023-02-04T12:14:37.591Z,12.00
2023-02-04T12:17:17.464Z,12.00
2023-02-04T12:19:44.390Z,12.20
2023-02-04T12:22:11.219Z,12.30
2023-02-04T12:24:38.087Z,12.60
2023-02-04T12:27:04.896Z,12.90
2023-02-04T12:29:31.741Z,13.10
2023-02-04T12:31:58.703Z,13.00
2023-02-04T12:34:25.600Z,13.10
2023-02-04T12:36:52.412Z,13.40
2023-02-04T12:39:19.365Z,13.70
2023-02-04T12:41:46.461Z,14.10
2023-02-04T12:44:13.509Z,14.20
2023-02-04T12:46:40.422Z,14.20
2023-02-04T12:49:09.555Z,13.90
2023-02-04T12:51:36.563Z,13.70
2023-02-04T12:54:03.590Z,13.40
2023-02-04T12:56:30.723Z,13.60
2023-02-04T12:58:57.876Z,14.00
2023-02-04T13:01:24.893Z,14.20
2023-02-04T13:03:51.962Z,14.50
2023-02-04T13:06:18.952Z,15.10
2023-02-04T13:08:45.761Z,15.70
2023-02-04T13:11:12.941Z,16.10
2023-02-04T13:13:40.536Z,16.30
2023-02-04T13:16:07.323Z,16.60
2023-02-04T13:18:34.282Z,16.50
2023-02-04T13:21:05.614Z,15.80
2023-02-04T13:23:32.494Z,15.70
2023-02-04T13:25:59.600Z,15.40
2023-02-04T13:28:26.625Z,15.00
2023-02-04T13:30:53.548Z,14.60
2023-02-04T13:33:20.496Z,14.50
2023-02-04T13:35:47.441Z,14.80
2023-02-04T13:38:16.850Z,15.20
2023-02-04T13:40:43.946Z,15.50
2023-02-04T13:43:13.650Z,15.80
2023-02-04T13:45:47.814Z,15.90
2023-02-04T13:48:16.580Z,15.70
2023-02-04T13:50:43.562Z,15.30
2023-02-04T13:53:10.508Z,15.40
2023-02-04T13:55:37.482Z,15.10
2023-02-04T13:58:07.026Z,15.00
2023-02-04T14:00:34.502Z,14.70
2023-02-04T14:03:01.704Z,14.30
2023-02-04T14:05:28.664Z,14.10
2023-02-04T14:07:56.200Z,14.30
2023-02-04T14:10:25.877Z,14.10
2023-02-04T14:12:52.781Z,13.80
2023-02-04T14:15:19.664Z,13.80
2023-02-04T14:17:46.649Z,14.30
2023-02-04T14:20:13.613Z,14.50
2023-02-04T14:22:40.954Z,15.30
2023-02-04T14:25:10.217Z,15.80
2023-02-04T14:27:42.151Z,16.10
2023-02-04T14:30:36.409Z,16.00
2023-02-04T14:33:04.088Z,15.30
2023-02-04T14:35:32.811Z,14.80
2023-02-04T14:37:59.927Z,14.60
2023-02-04T14:40:27.071Z,14.20
2023-02-04T14:42:54.052Z,14.30
2023-02-04T14:45:21.019Z,14.00
2023-02-04T14:47:48.234Z,14.10
2023-02-04T14:50:17.050Z,13.90
2023-02-04T14:52:43.967Z,14.20
2023-02-04T14:55:13.060Z,14.40
2023-02-04T14:57:40.132Z,15.00
2023-02-04T15:00:07.474Z,15.00
2023-02-04T15:02:34.528Z,15.00
2023-02-04T15:05:01.686Z,14.80
2023-02-04T15:07:28.782Z,14.30
2023-02-04T15:09:55.614Z,14.20
2023-02-04T15:12:22.711Z,13.90
2023-02-04T15:14:49.676Z,13.50
2023-02-04T15:17:16.731Z,13.10
2023-02-04T15:19:43.867Z,13.00
2023-02-04T15:22:12.630Z,12.70
2023-02-04T15:24:40.031Z,12.40
2023-02-04T15:27:07.058Z,12.20
2023-02-04T15:29:33.964Z,12.10
2023-02-04T15:32:00.884Z,11.80
2023-02-04T15:34:27.878Z,11.60
2023-02-04T15:36:54.712Z,11.50
2023-02-04T15:39:21.580Z,11.50
2023-02-04T15:41:48.578Z,11.40
2023-02-04T15:44:15.622Z,11.30
2023-02-04T15:46:42.583Z,11.20
2023-02-04T15:49:09.584Z,11.10
2023-02-04T15:51:36.802Z,11.00
2023-02-04T15:54:04.283Z,10.90
2023-02-04T15:56:31.539Z,10.60
2023-02-04T15:59:00.361Z,10.60
2023-02-04T16:01:28.385Z,10.60
2023-02-04T16:03:56.770Z,10.60
2023-02-04T16:06:24.638Z,10.60
2023-02-04T16:08:52.304Z,10.40
2023-02-04T16:11:19.451Z,10.30
2023-02-04T16:13:46.395Z,10.20
2023-02-04T16:16:13.267Z,10.10
2023-02-04T16:18:40.204Z,10.00
2023-02-04T16:21:07.443Z,9.80
2023-02-04T16:23:34.411Z,9.70
2023-02-04T16:26:01.368Z,9.70
2023-02-04T16:28:28.316Z,9.60
2023-02-04T16:30:55.585Z,9.50
2023-02-04T16:33:22.606Z,9.50
2023-02-04T16:36:18.218Z,9.40
2023-02-04T16:38:45.759Z,9.20
2023-02-04T16:41:14.296Z,9.10
2023-02-04T16:43:41.956Z,9.10
2023-02-04T16:58:47.099Z,8.80
2023-02-04T17:01:14.224Z,8.70
2023-02-04T17:03:41.024Z,8.70
2023-02-04T17:06:07.989Z,8.60
2023-02-04T17:08:34.803Z,8.60
2023-02-04T17:11:20.426Z,8.50
2023-02-04T17:13:47.325Z,8.50
2023-02-04T17:16:14.513Z,8.40
2023-02-04T17:18:41.424Z,8.30
2023-02-04T17:21:08.247Z,8.20
2023-02-04T17:23:35.457Z,8.20
2023-02-04T17:26:02.546Z,8.10
2023-02-04T17:28:29.619Z,8.10
2023-02-04T17:30:56.631Z,8.00
2023-02-04T17:33:23.727Z,8.00
2023-02-04T17:35:50.693Z,8.00
2023-02-04T17:38:17.892Z,8.00
2023-02-04T17:40:44.743Z,8.00
2023-02-04T17:43:11.509Z,7.90
2023-02-04T17:45:38.475Z,7.90
2023-02-04T17:48:05.565Z,7.90
2023-02-04T17:53:09.072Z,7.90
2023-02-04T17:55:38.086Z,8.00
2023-02-04T17:58:31.940Z,8.00
2023-02-04T18:00:59.478Z,7.90
2023-02-04T18:03:28.666Z,7.80
2023-02-04T18:05:56.954Z,7.80
2023-02-04T18:08:27.353Z,7.80
2023-02-04T18:10:55.828Z,7.80
2023-02-04T18:13:34.131Z,7.70
2023-02-04T18:16:03.040Z,7.70
2023-02-04T18:18:39.023Z,7.70
2023-02-04T18:21:21.257Z,7.60
2023-02-04T18:23:56.912Z,7.50
2023-02-04T18:26:25.781Z,7.50
2023-02-04T18:28:53.118Z,7.50
2023-02-04T18:31:26.248Z,7.40
2023-02-04T18:33:53.043Z,7.40
2023-02-04T18:36:20.710Z,7.30
2023-02-04T18:38:47.565Z,7.30
2023-02-04T18:41:20.964Z,7.30
2023-02-04T18:43:53.541Z,7.30
2023-02-04T18:46:24.864Z,7.40
2023-02-04T19:15:39.699Z,7.20
2023-02-04T19:18:28.451Z,7.10
2023-02-04T19:20:56.370Z,7.00
2023-02-04T19:23:24.275Z,6.90
2023-02-04T19:25:52.741Z,6.90
2023-02-04T19:28:30.082Z,6.80
2023-02-04T19:31:08.123Z,6.70
2023-02-04T19:33:45.409Z,6.60
2023-02-04T19:36:30.461Z,6.60
2023-02-04T19:39:01.006Z,6.60
2023-02-04T19:41:46.046Z,6.50
2023-02-04T19:44:12.978Z,6.40
2023-02-04T19:46:41.399Z,6.40
2023-02-04T19:49:17.771Z,6.30
2023-02-04T19:51:45.905Z,6.30
2023-02-04T19:54:25.198Z,6.20
2023-02-04T19:56:54.955Z,6.20
2023-02-04T19:59:30.368Z,6.20
2023-02-04T20:02:03.605Z,6.20
2023-02-04T20:04:41.246Z,6.20
2023-02-04T20:07:23.832Z,6.20
2023-02-04T20:09:59.508Z,6.10
2023-02-04T20:12:29.639Z,6.00
2023-02-04T20:14:57.286Z,6.00
2023-02-04T20:17:45.919Z,5.90
2023-02-04T20:20:29.418Z,5.90
2023-02-04T20:23:01.943Z,5.80
2023-02-04T20:25:39.147Z,5.80
2023-02-04T20:28:16.312Z,5.70
2023-02-04T20:30:43.585Z,5.80
2023-02-04T20:33:24.849Z,5.80
2023-02-04T20:36:20.792Z,5.80
2023-02-04T20:38:47.882Z,5.80
2023-02-04T20:41:23.686Z,5.70
2023-02-04T20:43:51.757Z,5.70
2023-02-04T20:46:24.752Z,5.70
2023-02-04T20:48:52.146Z,5.70
2023-02-04T20:51:23.858Z,5.70
2023-02-04T20:53:59.218Z,5.70
2023-02-04T20:56:26.164Z,5.60
2023-02-04T20:59:17.456Z,5.60
2023-02-04T21:01:46.337Z,5.50
2023-02-04T21:04:38.432Z,5.40
2023-02-04T21:07:18.690Z,5.30
2023-02-04T21:09:45.993Z,5.30
2023-02-04T21:12:13.007Z,5.20
2023-02-04T21:14:40.059Z,5.20
2023-02-04T21:17:07.019Z,5.20
2023-02-04T21:19:35.384Z,5.20
2023-02-04T21:22:02.439Z,5.10
2023-02-04T21:24:31.980Z,5.00
2023-02-04T21:26:59.561Z,4.90
2023-02-04T21:29:26.843Z,4.90
2023-02-04T21:31:54.784Z,4.90
2023-02-04T21:34:21.779Z,4.80
2023-02-04T21:36:48.765Z,4.70
2023-02-04T21:39:15.862Z,4.70
2023-02-04T21:41:42.703Z,4.60
2023-02-04T21:44:09.789Z,4.70
2023-02-04T21:46:36.657Z,4.60
2023-02-04T21:49:05.204Z,4.50
2023-02-04T21:51:32.242Z,4.50
2023-02-04T21:54:00.311Z,4.50
2023-02-04T21:56:27.464Z,4.50
2023-02-04T21:58:54.426Z,4.50
2023-02-04T22:01:21.660Z,4.50
2023-02-04T22:03:48.750Z,4.50
2023-02-04T22:06:15.847Z,4.60
2023-02-04T22:08:42.847Z,4.60
2023-02-04T22:11:09.769Z,4.70
2023-02-04T22:13:37.132Z,4.80
2023-02-04T22:16:04.778Z,4.80
2023-02-04T22:18:31.760Z,4.80
2023-02-04T22:20:59.162Z,4.80
2023-02-04T22:23:26.244Z,4.90
2023-02-04T22:25:53.447Z,4.90
2023-02-04T22:28:20.780Z,4.80
2023-02-04T22:30:48.527Z,4.90
2023-02-04T22:33:15.693Z,4.90
2023-02-04T22:35:43.094Z,4.90
2023-02-04T22:38:10.461Z,5.00
2023-02-04T22:40:37.409Z,5.00
2023-02-04T22:43:04.966Z,5.00
2023-02-04T22:45:32.467Z,5.00
2023-02-04T22:47:59.676Z,5.00
2023-02-04T22:50:26.810Z,5.00
2023-02-04T22:52:54.009Z,4.90
2023-02-04T22:55:21.237Z,5.00
2023-02-04T22:57:48.491Z,5.00
2023-02-04T23:00:16.066Z,4.90
2023-02-04T23:02:43.703Z,4.90
2023-02-04T23:05:11.140Z,4.90
2023-02-04T23:07:38.519Z,4.80
2023-02-04T23:10:05.928Z,4.80
2023-02-04T23:12:33.108Z,4.80
2023-02-04T23:15:00.381Z,4.80
2023-02-04T23:17:27.649Z,4.90
2023-02-04T23:19:54.670Z,4.80
2023-02-04T23:22:21.878Z,4.70
2023-02-04T23:24:49.624Z,4.60
2023-02-04T23:27:17.260Z,4.60
2023-02-04T23:29:44.624Z,4.50
2023-02-04T23:32:11.732Z,4.40
2023-02-04T23:34:38.928Z,4.30
2023-02-04T23:37:06.148Z,4.30
2023-02-04T23:39:33.248Z,4.20
2023-02-04T23:42:00.335Z,4.20
2023-02-04T23:44:27.569Z,4.20
2023-02-04T23:46:54.780Z,4.10
2023-02-04T23:49:21.815Z,4.00
2023-02-04T23:51:49.184Z,3.90
2023-02-04T23:54:16.373Z,3.90
2023-02-04T23:56:43.520Z,3.80
2023-02-04T23:59:10.877Z,3.80
